sensor_id;sensor_type;location;lat;lon;timestamp;temperature;humidity
39931;DHT22;26635;-35.248;149.138;2022-12-07T00:01:48;23.80;57.80
39931;DHT22;26635;-35.248;149.138;2022-12-07T00:04:20;23.90;60.00
39931;DHT22;26635;-35.248;149.138;2022-12-07T00:06:54;24.00;57.80
39931;DHT22;26635;-35.248;149.138;2022-12-07T00:09:25;24.10;56.90
39931;DHT22;26635;-35.248;149.138;2022-12-07T00:11:55;24.30;57.50
39931;DHT22;26635;-35.248;149.138;2022-12-07T00:14:25;24.50;56.00
39931;DHT22;26635;-35.248;149.138;2022-12-07T00:16:56;24.60;57.60
39931;DHT22;26635;-35.248;149.138;2022-12-07T00:19:27;24.60;56.50
39931;DHT22;26635;-35.248;149.138;2022-12-07T00:21:59;24.80;56.80
39931;DHT22;26635;-35.248;149.138;2022-12-07T00:24:30;24.90;54.60
39931;DHT22;26635;-35.248;149.138;2022-12-07T00:27:01;25.00;55.40
39931;DHT22;26635;-35.248;149.138;2022-12-07T00:29:34;25.00;53.60
39931;DHT22;26635;-35.248;149.138;2022-12-07T00:32:06;25.10;55.90
39931;DHT22;26635;-35.248;149.138;2022-12-07T00:34:36;25.20;54.60
39931;DHT22;26635;-35.248;149.138;2022-12-07T00:37:08;25.30;51.70
39931;DHT22;26635;-35.248;149.138;2022-12-07T00:39:38;25.20;51.00
39931;DHT22;26635;-35.248;149.138;2022-12-07T00:42:10;25.10;53.00
39931;DHT22;26635;-35.248;149.138;2022-12-07T00:44:40;24.90;54.40
39931;DHT22;26635;-35.248;149.138;2022-12-07T00:47:15;24.80;52.60
39931;DHT22;26635;-35.248;149.138;2022-12-07T00:49:47;24.70;52.80
39931;DHT22;26635;-35.248;149.138;2022-12-07T00:52:18;24.50;54.50
39931;DHT22;26635;-35.248;149.138;2022-12-07T00:54:48;24.40;54.50
39931;DHT22;26635;-35.248;149.138;2022-12-07T00:57:19;24.30;55.50
39931;DHT22;26635;-35.248;149.138;2022-12-07T00:59:50;24.30;54.90
39931;DHT22;26635;-35.248;149.138;2022-12-07T01:02:27;24.40;52.50
39931;DHT22;26635;-35.248;149.138;2022-12-07T01:05:01;24.40;52.30
39931;DHT22;26635;-35.248;149.138;2022-12-07T01:07:34;24.50;52.80
39931;DHT22;26635;-35.248;149.138;2022-12-07T01:10:05;24.50;52.20
39931;DHT22;26635;-35.248;149.138;2022-12-07T01:12:36;24.40;53.00
39931;DHT22;26635;-35.248;149.138;2022-12-07T01:15:07;24.50;51.60
39931;DHT22;26635;-35.248;149.138;2022-12-07T01:17:38;24.60;51.10
39931;DHT22;26635;-35.248;149.138;2022-12-07T01:20:09;24.50;51.00
39931;DHT22;26635;-35.248;149.138;2022-12-07T01:22:41;24.50;51.30
39931;DHT22;26635;-35.248;149.138;2022-12-07T01:25:12;24.40;52.60
39931;DHT22;26635;-35.248;149.138;2022-12-07T01:27:43;24.30;51.30
39931;DHT22;26635;-35.248;149.138;2022-12-07T01:30:14;24.30;51.30
39931;DHT22;26635;-35.248;149.138;2022-12-07T01:32:45;24.30;51.20
39931;DHT22;26635;-35.248;149.138;2022-12-07T01:35:16;24.40;51.60
39931;DHT22;26635;-35.248;149.138;2022-12-07T01:37:46;24.40;49.30
39931;DHT22;26635;-35.248;149.138;2022-12-07T01:40:17;24.30;51.30
39931;DHT22;26635;-35.248;149.138;2022-12-07T01:42:48;24.30;49.60
39931;DHT22;26635;-35.248;149.138;2022-12-07T01:47:59;24.40;50.00
39931;DHT22;26635;-35.248;149.138;2022-12-07T01:50:30;24.40;51.10
39931;DHT22;26635;-35.248;149.138;2022-12-07T01:53:05;24.30;50.80
39931;DHT22;26635;-35.248;149.138;2022-12-07T01:55:40;24.10;50.50
39931;DHT22;26635;-35.248;149.138;2022-12-07T01:58:12;23.90;51.60
39931;DHT22;26635;-35.248;149.138;2022-12-07T02:00:45;23.80;51.30
39931;DHT22;26635;-35.248;149.138;2022-12-07T02:03:34;23.70;51.90
39931;DHT22;26635;-35.248;149.138;2022-12-07T02:06:08;23.80;52.70
39931;DHT22;26635;-35.248;149.138;2022-12-07T02:08:39;23.90;53.80
39931;DHT22;26635;-35.248;149.138;2022-12-07T02:11:11;24.00;53.20
39931;DHT22;26635;-35.248;149.138;2022-12-07T02:13:43;23.90;53.30
39931;DHT22;26635;-35.248;149.138;2022-12-07T02:25:22;23.90;51.20
39931;DHT22;26635;-35.248;149.138;2022-12-07T02:28:06;23.80;52.80
39931;DHT22;26635;-35.248;149.138;2022-12-07T02:30:46;23.80;51.70
39931;DHT22;26635;-35.248;149.138;2022-12-07T02:33:30;23.80;52.20
39931;DHT22;26635;-35.248;149.138;2022-12-07T02:36:19;23.70;51.30
39931;DHT22;26635;-35.248;149.138;2022-12-07T02:39:07;23.60;51.20
39931;DHT22;26635;-35.248;149.138;2022-12-07T02:41:48;23.50;51.90
39931;DHT22;26635;-35.248;149.138;2022-12-07T02:44:24;23.50;52.40
39931;DHT22;26635;-35.248;149.138;2022-12-07T02:47:06;23.50;52.40
39931;DHT22;26635;-35.248;149.138;2022-12-07T02:49:38;23.70;51.60
39931;DHT22;26635;-35.248;149.138;2022-12-07T02:52:10;24.00;52.70
39931;DHT22;26635;-35.248;149.138;2022-12-07T02:54:43;24.10;53.70
39931;DHT22;26635;-35.248;149.138;2022-12-07T02:57:36;24.20;50.70
39931;DHT22;26635;-35.248;149.138;2022-12-07T03:00:14;24.10;52.40
39931;DHT22;26635;-35.248;149.138;2022-12-07T03:12:07;23.60;51.50
39931;DHT22;26635;-35.248;149.138;2022-12-07T03:14:56;23.50;52.80
39931;DHT22;26635;-35.248;149.138;2022-12-07T03:17:40;23.60;54.60
39931;DHT22;26635;-35.248;149.138;2022-12-07T03:20:15;23.60;54.80
39931;DHT22;26635;-35.248;149.138;2022-12-07T03:22:52;23.50;55.30
39931;DHT22;26635;-35.248;149.138;2022-12-07T03:25:26;23.50;56.10
39931;DHT22;26635;-35.248;149.138;2022-12-07T03:28:04;23.40;54.50
39931;DHT22;26635;-35.248;149.138;2022-12-07T03:30:51;23.30;56.20
39931;DHT22;26635;-35.248;149.138;2022-12-07T03:33:32;23.30;55.10
39931;DHT22;26635;-35.248;149.138;2022-12-07T03:36:07;23.20;55.70
39931;DHT22;26635;-35.248;149.138;2022-12-07T03:41:32;23.40;56.30
39931;DHT22;26635;-35.248;149.138;2022-12-07T03:44:12;23.50;57.10
39931;DHT22;26635;-35.248;149.138;2022-12-07T03:46:50;23.60;53.90
39931;DHT22;26635;-35.248;149.138;2022-12-07T03:52:16;23.50;53.90
39931;DHT22;26635;-35.248;149.138;2022-12-07T03:54:56;23.40;53.50
39931;DHT22;26635;-35.248;149.138;2022-12-07T03:57:35;23.40;53.00
39931;DHT22;26635;-35.248;149.138;2022-12-07T04:00:07;23.60;53.70
39931;DHT22;26635;-35.248;149.138;2022-12-07T04:02:38;23.70;53.80
39931;DHT22;26635;-35.248;149.138;2022-12-07T04:05:09;23.80;53.70
39931;DHT22;26635;-35.248;149.138;2022-12-07T04:07:41;23.70;52.60
39931;DHT22;26635;-35.248;149.138;2022-12-07T04:10:11;23.60;52.90
39931;DHT22;26635;-35.248;149.138;2022-12-07T04:12:42;23.50;52.90
39931;DHT22;26635;-35.248;149.138;2022-12-07T04:15:13;23.40;53.10
39931;DHT22;26635;-35.248;149.138;2022-12-07T04:17:45;23.10;54.10
39931;DHT22;26635;-35.248;149.138;2022-12-07T04:20:16;23.10;54.30
39931;DHT22;26635;-35.248;149.138;2022-12-07T04:22:47;23.00;56.20
39931;DHT22;26635;-35.248;149.138;2022-12-07T04:25:18;22.90;54.20
39931;DHT22;26635;-35.248;149.138;2022-12-07T04:27:48;22.80;54.30
39931;DHT22;26635;-35.248;149.138;2022-12-07T04:30:19;22.80;54.90
39931;DHT22;26635;-35.248;149.138;2022-12-07T04:32:49;22.70;54.70
39931;DHT22;26635;-35.248;149.138;2022-12-07T04:35:20;22.60;53.50
39931;DHT22;26635;-35.248;149.138;2022-12-07T04:37:50;22.60;53.80
39931;DHT22;26635;-35.248;149.138;2022-12-07T04:40:20;22.50;54.20
39931;DHT22;26635;-35.248;149.138;2022-12-07T04:42:51;22.40;55.90
39931;DHT22;26635;-35.248;149.138;2022-12-07T04:45:21;22.40;56.00
39931;DHT22;26635;-35.248;149.138;2022-12-07T04:47:52;22.30;56.40
39931;DHT22;26635;-35.248;149.138;2022-12-07T04:50:24;22.20;56.90
39931;DHT22;26635;-35.248;149.138;2022-12-07T04:53:01;22.20;57.00
39931;DHT22;26635;-35.248;149.138;2022-12-07T04:55:36;22.20;55.40
39931;DHT22;26635;-35.248;149.138;2022-12-07T04:58:08;22.10;56.30
39931;DHT22;26635;-35.248;149.138;2022-12-07T05:00:40;22.20;55.10
39931;DHT22;26635;-35.248;149.138;2022-12-07T05:03:12;22.20;56.50
39931;DHT22;26635;-35.248;149.138;2022-12-07T05:05:42;22.20;56.30
39931;DHT22;26635;-35.248;149.138;2022-12-07T05:08:27;22.20;55.80
39931;DHT22;26635;-35.248;149.138;2022-12-07T05:10:58;22.30;55.50
39931;DHT22;26635;-35.248;149.138;2022-12-07T05:13:29;22.30;56.00
39931;DHT22;26635;-35.248;149.138;2022-12-07T05:15:59;22.30;55.30
39931;DHT22;26635;-35.248;149.138;2022-12-07T05:18:29;22.20;56.20
39931;DHT22;26635;-35.248;149.138;2022-12-07T05:21:00;22.20;56.00
39931;DHT22;26635;-35.248;149.138;2022-12-07T05:23:30;22.20;55.80
39931;DHT22;26635;-35.248;149.138;2022-12-07T05:26:01;22.10;55.30
39931;DHT22;26635;-35.248;149.138;2022-12-07T05:28:31;22.20;55.40
39931;DHT22;26635;-35.248;149.138;2022-12-07T05:31:01;22.10;55.30
39931;DHT22;26635;-35.248;149.138;2022-12-07T05:33:32;22.10;55.70
39931;DHT22;26635;-35.248;149.138;2022-12-07T05:36:12;22.10;55.30
39931;DHT22;26635;-35.248;149.138;2022-12-07T05:38:47;22.10;55.10
39931;DHT22;26635;-35.248;149.138;2022-12-07T05:41:19;22.20;55.00
39931;DHT22;26635;-35.248;149.138;2022-12-07T05:44:19;22.10;53.70
39931;DHT22;26635;-35.248;149.138;2022-12-07T05:46:50;22.10;55.00
39931;DHT22;26635;-35.248;149.138;2022-12-07T05:49:20;22.00;55.10
39931;DHT22;26635;-35.248;149.138;2022-12-07T05:51:51;21.90;54.40
39931;DHT22;26635;-35.248;149.138;2022-12-07T05:54:22;21.90;54.40
39931;DHT22;26635;-35.248;149.138;2022-12-07T05:56:52;21.80;54.60
39931;DHT22;26635;-35.248;149.138;2022-12-07T05:59:23;21.70;54.80
39931;DHT22;26635;-35.248;149.138;2022-12-07T06:01:55;21.70;53.80
39931;DHT22;26635;-35.248;149.138;2022-12-07T06:04:29;21.60;54.30
39931;DHT22;26635;-35.248;149.138;2022-12-07T06:07:00;21.60;55.40
39931;DHT22;26635;-35.248;149.138;2022-12-07T06:09:32;21.50;55.50
39931;DHT22;26635;-35.248;149.138;2022-12-07T06:12:05;21.50;55.00
39931;DHT22;26635;-35.248;149.138;2022-12-07T06:14:58;21.50;55.70
39931;DHT22;26635;-35.248;149.138;2022-12-07T06:17:28;21.50;56.60
39931;DHT22;26635;-35.248;149.138;2022-12-07T06:19:59;21.40;56.60
39931;DHT22;26635;-35.248;149.138;2022-12-07T06:22:31;21.50;56.60
39931;DHT22;26635;-35.248;149.138;2022-12-07T06:25:01;21.50;56.80
39931;DHT22;26635;-35.248;149.138;2022-12-07T06:27:35;21.40;57.20
39931;DHT22;26635;-35.248;149.138;2022-12-07T06:30:08;21.40;57.50
39931;DHT22;26635;-35.248;149.138;2022-12-07T06:32:39;21.40;57.70
39931;DHT22;26635;-35.248;149.138;2022-12-07T06:35:09;21.30;57.80
39931;DHT22;26635;-35.248;149.138;2022-12-07T06:37:40;21.30;57.00
39931;DHT22;26635;-35.248;149.138;2022-12-07T06:40:10;21.20;58.10
39931;DHT22;26635;-35.248;149.138;2022-12-07T06:42:41;21.20;58.20
39931;DHT22;26635;-35.248;149.138;2022-12-07T06:45:12;21.20;59.70
39931;DHT22;26635;-35.248;149.138;2022-12-07T06:47:46;21.20;59.60
39931;DHT22;26635;-35.248;149.138;2022-12-07T06:50:21;21.20;58.70
39931;DHT22;26635;-35.248;149.138;2022-12-07T06:52:53;21.20;58.40
39931;DHT22;26635;-35.248;149.138;2022-12-07T06:55:26;21.10;58.50
39931;DHT22;26635;-35.248;149.138;2022-12-07T06:57:57;21.10;57.40
39931;DHT22;26635;-35.248;149.138;2022-12-07T07:00:28;21.10;56.30
39931;DHT22;26635;-35.248;149.138;2022-12-07T07:03:01;21.00;57.70
39931;DHT22;26635;-35.248;149.138;2022-12-07T07:05:35;21.00;58.00
39931;DHT22;26635;-35.248;149.138;2022-12-07T07:08:07;21.10;58.30
39931;DHT22;26635;-35.248;149.138;2022-12-07T07:10:54;21.00;57.70
39931;DHT22;26635;-35.248;149.138;2022-12-07T07:13:25;21.00;58.60
39931;DHT22;26635;-35.248;149.138;2022-12-07T07:15:59;20.90;59.10
39931;DHT22;26635;-35.248;149.138;2022-12-07T07:18:31;20.90;59.70
39931;DHT22;26635;-35.248;149.138;2022-12-07T07:21:01;20.90;60.70
39931;DHT22;26635;-35.248;149.138;2022-12-07T07:23:34;20.90;60.00
39931;DHT22;26635;-35.248;149.138;2022-12-07T07:26:05;20.90;60.10
39931;DHT22;26635;-35.248;149.138;2022-12-07T07:28:39;20.90;61.10
39931;DHT22;26635;-35.248;149.138;2022-12-07T07:31:10;20.90;61.00
39931;DHT22;26635;-35.248;149.138;2022-12-07T07:33:42;20.80;61.50
39931;DHT22;26635;-35.248;149.138;2022-12-07T07:36:24;20.90;61.40
39931;DHT22;26635;-35.248;149.138;2022-12-07T07:38:55;20.80;61.10
39931;DHT22;26635;-35.248;149.138;2022-12-07T07:41:29;20.90;61.30
39931;DHT22;26635;-35.248;149.138;2022-12-07T07:44:02;20.80;62.10
39931;DHT22;26635;-35.248;149.138;2022-12-07T07:46:33;20.70;61.90
39931;DHT22;26635;-35.248;149.138;2022-12-07T07:49:04;20.70;62.70
39931;DHT22;26635;-35.248;149.138;2022-12-07T07:51:35;20.70;62.50
39931;DHT22;26635;-35.248;149.138;2022-12-07T07:54:08;20.60;63.00
39931;DHT22;26635;-35.248;149.138;2022-12-07T07:56:38;20.60;62.70
39931;DHT22;26635;-35.248;149.138;2022-12-07T07:59:09;20.50;62.90
39931;DHT22;26635;-35.248;149.138;2022-12-07T08:01:41;20.50;62.60
39931;DHT22;26635;-35.248;149.138;2022-12-07T08:04:15;20.40;63.00
39931;DHT22;26635;-35.248;149.138;2022-12-07T08:06:46;20.40;61.90
39931;DHT22;26635;-35.248;149.138;2022-12-07T08:09:17;20.30;62.50
39931;DHT22;26635;-35.248;149.138;2022-12-07T08:11:49;20.20;61.70
39931;DHT22;26635;-35.248;149.138;2022-12-07T08:14:23;20.20;62.40
39931;DHT22;26635;-35.248;149.138;2022-12-07T08:16:59;20.10;62.30
39931;DHT22;26635;-35.248;149.138;2022-12-07T08:19:32;20.00;62.90
39931;DHT22;26635;-35.248;149.138;2022-12-07T08:22:12;20.00;62.80
39931;DHT22;26635;-35.248;149.138;2022-12-07T08:24:43;19.90;63.30
39931;DHT22;26635;-35.248;149.138;2022-12-07T08:27:14;19.90;63.20
39931;DHT22;26635;-35.248;149.138;2022-12-07T08:29:46;19.80;63.40
39931;DHT22;26635;-35.248;149.138;2022-12-07T08:32:17;19.80;63.90
39931;DHT22;26635;-35.248;149.138;2022-12-07T08:34:48;19.70;64.30
39931;DHT22;26635;-35.248;149.138;2022-12-07T08:37:21;19.70;65.00
39931;DHT22;26635;-35.248;149.138;2022-12-07T08:39:52;19.60;65.10
39931;DHT22;26635;-35.248;149.138;2022-12-07T08:42:23;19.50;65.10
39931;DHT22;26635;-35.248;149.138;2022-12-07T08:45:05;19.40;65.30
39931;DHT22;26635;-35.248;149.138;2022-12-07T08:50:32;19.30;66.50
39931;DHT22;26635;-35.248;149.138;2022-12-07T08:53:06;19.20;67.30
39931;DHT22;26635;-35.248;149.138;2022-12-07T08:55:37;19.20;67.90
39931;DHT22;26635;-35.248;149.138;2022-12-07T08:58:08;19.10;68.50
39931;DHT22;26635;-35.248;149.138;2022-12-07T09:00:39;19.00;68.90
39931;DHT22;26635;-35.248;149.138;2022-12-07T09:03:10;18.90;69.10
39931;DHT22;26635;-35.248;149.138;2022-12-07T09:05:44;18.90;69.50
39931;DHT22;26635;-35.248;149.138;2022-12-07T09:08:16;18.90;70.00
39931;DHT22;26635;-35.248;149.138;2022-12-07T09:10:47;18.80;70.80
39931;DHT22;26635;-35.248;149.138;2022-12-07T09:13:19;18.70;71.00
39931;DHT22;26635;-35.248;149.138;2022-12-07T09:15:50;18.70;71.60
39931;DHT22;26635;-35.248;149.138;2022-12-07T09:18:20;18.60;72.10
39931;DHT22;26635;-35.248;149.138;2022-12-07T09:20:51;18.50;72.60
39931;DHT22;26635;-35.248;149.138;2022-12-07T09:23:23;18.50;73.10
39931;DHT22;26635;-35.248;149.138;2022-12-07T09:25:54;18.40;73.40
39931;DHT22;26635;-35.248;149.138;2022-12-07T09:28:25;18.40;73.80
39931;DHT22;26635;-35.248;149.138;2022-12-07T09:31:03;18.30;75.00
39931;DHT22;26635;-35.248;149.138;2022-12-07T09:33:57;18.20;77.00
39931;DHT22;26635;-35.248;149.138;2022-12-07T09:36:28;18.10;76.80
39931;DHT22;26635;-35.248;149.138;2022-12-07T09:38:59;18.10;77.40
39931;DHT22;26635;-35.248;149.138;2022-12-07T09:41:41;18.00;78.30
39931;DHT22;26635;-35.248;149.138;2022-12-07T09:44:26;18.00;79.10
39931;DHT22;26635;-35.248;149.138;2022-12-07T09:46:59;17.90;79.70
39931;DHT22;26635;-35.248;149.138;2022-12-07T09:49:32;17.90;80.30
39931;DHT22;26635;-35.248;149.138;2022-12-07T09:52:17;17.80;81.00
39931;DHT22;26635;-35.248;149.138;2022-12-07T09:54:50;17.80;81.50
39931;DHT22;26635;-35.248;149.138;2022-12-07T09:57:30;17.80;81.80
39931;DHT22;26635;-35.248;149.138;2022-12-07T10:00:17;17.80;82.30
39931;DHT22;26635;-35.248;149.138;2022-12-07T10:03:00;17.70;82.40
39931;DHT22;26635;-35.248;149.138;2022-12-07T10:05:52;17.70;83.10
39931;DHT22;26635;-35.248;149.138;2022-12-07T10:08:29;17.70;83.50
39931;DHT22;26635;-35.248;149.138;2022-12-07T10:11:02;17.60;83.80
39931;DHT22;26635;-35.248;149.138;2022-12-07T10:13:41;17.60;84.10
39931;DHT22;26635;-35.248;149.138;2022-12-07T10:16:40;17.60;84.40
39931;DHT22;26635;-35.248;149.138;2022-12-07T10:19:29;17.60;84.70
39931;DHT22;26635;-35.248;149.138;2022-12-07T10:22:09;17.50;84.90
39931;DHT22;26635;-35.248;149.138;2022-12-07T10:24:42;17.50;85.30
39931;DHT22;26635;-35.248;149.138;2022-12-07T10:27:42;17.50;85.20
39931;DHT22;26635;-35.248;149.138;2022-12-07T10:30:14;17.40;86.60
39931;DHT22;26635;-35.248;149.138;2022-12-07T10:32:46;17.40;85.80
39931;DHT22;26635;-35.248;149.138;2022-12-07T10:37:52;17.40;86.50
39931;DHT22;26635;-35.248;149.138;2022-12-07T10:43:04;17.30;87.10
39931;DHT22;26635;-35.248;149.138;2022-12-07T10:48:34;17.30;88.00
39931;DHT22;26635;-35.248;149.138;2022-12-07T10:54:11;17.30;88.20
39931;DHT22;26635;-35.248;149.138;2022-12-07T10:56:56;17.20;88.40
39931;DHT22;26635;-35.248;149.138;2022-12-07T10:59:35;17.20;88.50
39931;DHT22;26635;-35.248;149.138;2022-12-07T11:02:25;17.10;89.00
39931;DHT22;26635;-35.248;149.138;2022-12-07T11:05:22;17.10;89.00
39931;DHT22;26635;-35.248;149.138;2022-12-07T11:08:17;17.10;89.30
39931;DHT22;26635;-35.248;149.138;2022-12-07T11:17:10;17.10;89.80
39931;DHT22;26635;-35.248;149.138;2022-12-07T11:22:56;17.10;90.00
39931;DHT22;26635;-35.248;149.138;2022-12-07T11:29:00;17.10;90.10
39931;DHT22;26635;-35.248;149.138;2022-12-07T11:32:10;17.10;90.30
39931;DHT22;26635;-35.248;149.138;2022-12-07T11:37:40;17.10;90.30
39931;DHT22;26635;-35.248;149.138;2022-12-07T11:40:30;17.10;90.30
39931;DHT22;26635;-35.248;149.138;2022-12-07T11:43:27;17.10;90.30
39931;DHT22;26635;-35.248;149.138;2022-12-07T11:46:16;17.20;90.10
39931;DHT22;26635;-35.248;149.138;2022-12-07T11:49:02;17.20;90.00
39931;DHT22;26635;-35.248;149.138;2022-12-07T11:51:35;17.10;89.90
39931;DHT22;26635;-35.248;149.138;2022-12-07T11:54:35;17.10;90.00
39931;DHT22;26635;-35.248;149.138;2022-12-07T11:57:35;17.10;90.00
39931;DHT22;26635;-35.248;149.138;2022-12-07T12:00:18;17.10;89.90
39931;DHT22;26635;-35.248;149.138;2022-12-07T12:05:53;17.10;89.70
39931;DHT22;26635;-35.248;149.138;2022-12-07T12:09:12;17.10;90.00
39931;DHT22;26635;-35.248;149.138;2022-12-07T12:15:31;17.10;90.10
39931;DHT22;26635;-35.248;149.138;2022-12-07T12:18:22;17.10;90.10
39931;DHT22;26635;-35.248;149.138;2022-12-07T12:21:12;17.10;90.20
39931;DHT22;26635;-35.248;149.138;2022-12-07T12:24:00;17.10;90.20
39931;DHT22;26635;-35.248;149.138;2022-12-07T12:26:36;17.10;90.30
39931;DHT22;26635;-35.248;149.138;2022-12-07T12:29:22;17.00;90.50
39931;DHT22;26635;-35.248;149.138;2022-12-07T12:32:19;17.00;90.50
39931;DHT22;26635;-35.248;149.138;2022-12-07T12:35:02;17.00;90.60
39931;DHT22;26635;-35.248;149.138;2022-12-07T12:42:51;16.90;90.90
39931;DHT22;26635;-35.248;149.138;2022-12-07T12:45:25;16.90;91.00
39931;DHT22;26635;-35.248;149.138;2022-12-07T12:47:58;16.90;91.00
39931;DHT22;26635;-35.248;149.138;2022-12-07T12:50:34;17.00;91.00
39931;DHT22;26635;-35.248;149.138;2022-12-07T12:53:24;16.90;91.10
39931;DHT22;26635;-35.248;149.138;2022-12-07T13:02:28;16.80;91.30
39931;DHT22;26635;-35.248;149.138;2022-12-07T13:05:21;16.80;91.40
39931;DHT22;26635;-35.248;149.138;2022-12-07T13:08:26;16.80;91.50
39931;DHT22;26635;-35.248;149.138;2022-12-07T13:11:19;16.70;91.60
39931;DHT22;26635;-35.248;149.138;2022-12-07T13:13:51;16.70;91.60
39931;DHT22;26635;-35.248;149.138;2022-12-07T13:18:52;16.70;91.60
39931;DHT22;26635;-35.248;149.138;2022-12-07T13:24:00;16.70;91.50
39931;DHT22;26635;-35.248;149.138;2022-12-07T13:26:42;16.60;91.40
39931;DHT22;26635;-35.248;149.138;2022-12-07T13:29:19;16.60;91.20
39931;DHT22;26635;-35.248;149.138;2022-12-07T13:31:55;16.60;91.00
39931;DHT22;26635;-35.248;149.138;2022-12-07T13:34:39;16.60;90.90
39931;DHT22;26635;-35.248;149.138;2022-12-07T13:39:56;16.70;90.50
39931;DHT22;26635;-35.248;149.138;2022-12-07T13:42:31;16.60;90.30
39931;DHT22;26635;-35.248;149.138;2022-12-07T13:45:22;16.60;90.20
39931;DHT22;26635;-35.248;149.138;2022-12-07T13:48:35;16.60;90.10
39931;DHT22;26635;-35.248;149.138;2022-12-07T13:51:22;16.60;90.00
39931;DHT22;26635;-35.248;149.138;2022-12-07T13:53:56;16.60;89.80
39931;DHT22;26635;-35.248;149.138;2022-12-07T13:56:36;16.60;89.70
39931;DHT22;26635;-35.248;149.138;2022-12-07T13:59:38;16.60;89.20
39931;DHT22;26635;-35.248;149.138;2022-12-07T14:02:30;16.60;89.10
39931;DHT22;26635;-35.248;149.138;2022-12-07T14:05:16;16.60;88.90
39931;DHT22;26635;-35.248;149.138;2022-12-07T14:08:01;16.60;88.50
39931;DHT22;26635;-35.248;149.138;2022-12-07T14:10:33;16.50;88.40
39931;DHT22;26635;-35.248;149.138;2022-12-07T14:13:27;16.50;88.30
39931;DHT22;26635;-35.248;149.138;2022-12-07T14:16:00;16.50;88.10
39931;DHT22;26635;-35.248;149.138;2022-12-07T14:18:40;16.50;88.40
39931;DHT22;26635;-35.248;149.138;2022-12-07T14:23:42;16.40;88.00
39931;DHT22;26635;-35.248;149.138;2022-12-07T14:26:18;16.40;87.90
39931;DHT22;26635;-35.248;149.138;2022-12-07T14:28:50;16.40;87.70
39931;DHT22;26635;-35.248;149.138;2022-12-07T14:31:24;16.40;87.70
39931;DHT22;26635;-35.248;149.138;2022-12-07T14:34:00;16.40;88.00
39931;DHT22;26635;-35.248;149.138;2022-12-07T14:36:32;16.40;88.00
39931;DHT22;26635;-35.248;149.138;2022-12-07T14:39:03;16.30;87.90
39931;DHT22;26635;-35.248;149.138;2022-12-07T14:41:40;16.30;87.60
39931;DHT22;26635;-35.248;149.138;2022-12-07T14:44:23;16.20;88.00
39931;DHT22;26635;-35.248;149.138;2022-12-07T14:47:02;16.10;88.00
39931;DHT22;26635;-35.248;149.138;2022-12-07T14:49:52;16.10;87.40
39931;DHT22;26635;-35.248;149.138;2022-12-07T14:52:28;16.00;87.50
39931;DHT22;26635;-35.248;149.138;2022-12-07T14:55:28;16.00;86.90
39931;DHT22;26635;-35.248;149.138;2022-12-07T14:57:59;16.00;87.00
39931;DHT22;26635;-35.248;149.138;2022-12-07T15:00:30;16.00;86.40
39931;DHT22;26635;-35.248;149.138;2022-12-07T15:03:00;16.00;85.20
39931;DHT22;26635;-35.248;149.138;2022-12-07T15:05:32;16.00;85.30
39931;DHT22;26635;-35.248;149.138;2022-12-07T15:08:05;16.00;84.80
39931;DHT22;26635;-35.248;149.138;2022-12-07T15:10:37;16.00;84.40
39931;DHT22;26635;-35.248;149.138;2022-12-07T15:13:08;16.00;83.50
39931;DHT22;26635;-35.248;149.138;2022-12-07T15:15:57;16.00;83.40
39931;DHT22;26635;-35.248;149.138;2022-12-07T15:18:28;16.00;83.30
39931;DHT22;26635;-35.248;149.138;2022-12-07T15:20:58;16.10;82.80
39931;DHT22;26635;-35.248;149.138;2022-12-07T15:23:29;16.00;82.30
39931;DHT22;26635;-35.248;149.138;2022-12-07T15:26:01;16.00;80.30
39931;DHT22;26635;-35.248;149.138;2022-12-07T15:28:32;16.00;79.40
39931;DHT22;26635;-35.248;149.138;2022-12-07T15:31:04;16.00;80.40
39931;DHT22;26635;-35.248;149.138;2022-12-07T15:34:01;16.00;78.70
39931;DHT22;26635;-35.248;149.138;2022-12-07T15:36:34;15.90;78.00
39931;DHT22;26635;-35.248;149.138;2022-12-07T15:39:05;16.00;77.40
39931;DHT22;26635;-35.248;149.138;2022-12-07T15:41:42;15.90;76.20
39931;DHT22;26635;-35.248;149.138;2022-12-07T15:44:14;15.90;75.70
39931;DHT22;26635;-35.248;149.138;2022-12-07T15:47:03;15.80;75.20
39931;DHT22;26635;-35.248;149.138;2022-12-07T15:49:34;15.80;75.50
39931;DHT22;26635;-35.248;149.138;2022-12-07T15:52:04;15.70;75.60
39931;DHT22;26635;-35.248;149.138;2022-12-07T15:54:35;15.70;74.80
39931;DHT22;26635;-35.248;149.138;2022-12-07T15:57:06;15.60;74.20
39931;DHT22;26635;-35.248;149.138;2022-12-07T15:59:38;15.60;75.20
39931;DHT22;26635;-35.248;149.138;2022-12-07T16:02:10;15.50;75.00
39931;DHT22;26635;-35.248;149.138;2022-12-07T16:04:41;15.50;75.50
39931;DHT22;26635;-35.248;149.138;2022-12-07T16:07:11;15.50;74.10
39931;DHT22;26635;-35.248;149.138;2022-12-07T16:09:46;15.50;74.80
39931;DHT22;26635;-35.248;149.138;2022-12-07T16:12:17;15.50;73.50
39931;DHT22;26635;-35.248;149.138;2022-12-07T16:14:48;15.40;73.50
39931;DHT22;26635;-35.248;149.138;2022-12-07T16:17:19;15.40;73.50
39931;DHT22;26635;-35.248;149.138;2022-12-07T16:19:50;15.40;73.70
39931;DHT22;26635;-35.248;149.138;2022-12-07T16:22:21;15.30;70.70
39931;DHT22;26635;-35.248;149.138;2022-12-07T16:24:52;15.30;71.60
39931;DHT22;26635;-35.248;149.138;2022-12-07T16:27:23;15.30;71.50
39931;DHT22;26635;-35.248;149.138;2022-12-07T16:29:53;15.20;71.50
39931;DHT22;26635;-35.248;149.138;2022-12-07T16:32:24;15.10;72.90
39931;DHT22;26635;-35.248;149.138;2022-12-07T16:34:55;15.10;70.70
39931;DHT22;26635;-35.248;149.138;2022-12-07T16:37:27;15.00;71.70
39931;DHT22;26635;-35.248;149.138;2022-12-07T16:39:58;15.00;69.70
39931;DHT22;26635;-35.248;149.138;2022-12-07T16:42:33;14.90;68.40
39931;DHT22;26635;-35.248;149.138;2022-12-07T16:45:06;14.90;69.50
39931;DHT22;26635;-35.248;149.138;2022-12-07T16:47:39;14.90;69.70
39931;DHT22;26635;-35.248;149.138;2022-12-07T16:50:11;14.90;69.10
39931;DHT22;26635;-35.248;149.138;2022-12-07T16:52:41;14.80;67.40
39931;DHT22;26635;-35.248;149.138;2022-12-07T16:55:13;14.80;68.90
39931;DHT22;26635;-35.248;149.138;2022-12-07T16:57:45;14.70;69.80
39931;DHT22;26635;-35.248;149.138;2022-12-07T17:00:16;14.70;66.80
39931;DHT22;26635;-35.248;149.138;2022-12-07T17:02:47;14.60;68.70
39931;DHT22;26635;-35.248;149.138;2022-12-07T17:05:18;14.60;67.40